Time;durP1;ratioP1;P1;durP2;ratioP2;P2;SDS_P1;SDS_P2;PMS_P1;PMS_P2;Temp;Humidity;BMP_temperature;BMP_pressure;BME280_temperature;BME280_humidity;BME280_pressure;Samples;Min_cycle;Max_cycle;Signal;HPM_P1;HPM_P2
2022/07/01 00:01:23;;;;;;;28.77;17.92;;;;;;;;;;5011626;28;20056;-81
2022/07/01 00:03:49;;;;;;;30.70;18.27;;;;;;;;;;5027654;28;20437;-81
2022/07/01 00:06:16;;;;;;;31.55;19.42;;;;;;;;;;5028896;28;20474;-80
2022/07/01 00:08:41;;;;;;;31.13;19.02;;;;;;;;;;5012659;28;20030;-80
2022/07/01 00:11:06;;;;;;;32.88;19.17;;;;;;;;;;5029783;28;20037;-80
2022/07/01 00:13:32;;;;;;;32.17;18.90;;;;;;;;;;5015336;28;20079;-79
2022/07/01 00:15:58;;;;;;;34.75;19.17;;;;;;;;;;5019101;28;20435;-79
2022/07/01 00:18:23;;;;;;;31.05;17.90;;;;;;;;;;5023694;28;20045;-80
2022/07/01 00:20:50;;;;;;;38.65;20.75;;;;;;;;;;5023646;28;20049;-80
2022/07/01 00:23:17;;;;;;;32.83;19.50;;;;;;;;;;5024515;28;20050;-79
2022/07/01 00:25:43;;;;;;;38.22;18.48;;;;;;;;;;5032602;28;20177;-80
2022/07/01 00:28:09;;;;;;;31.60;19.40;;;;;;;;;;5027116;28;20054;-80
2022/07/01 00:30:34;;;;;;;28.80;18.50;;;;;;;;;;5011029;28;20044;-80
2022/07/01 00:33:00;;;;;;;28.92;18.20;;;;;;;;;;5009312;28;20037;-82
2022/07/01 00:35:26;;;;;;;39.13;19.38;;;;;;;;;;5025899;28;20049;-80
2022/07/01 00:37:51;;;;;;;31.45;18.75;;;;;;;;;;5009015;28;20129;-79
2022/07/01 00:40:17;;;;;;;27.38;18.30;;;;;;;;;;5010763;28;20021;-81
2022/07/01 00:42:43;;;;;;;28.02;18.10;;;;;;;;;;5010724;28;20390;-79
2022/07/01 00:45:10;;;;;;;29.42;18.08;;;;;;;;;;5025524;28;20131;-81
2022/07/01 00:47:36;;;;;;;31.67;19.42;;;;;;;;;;5025209;28;20497;-81
2022/07/01 00:50:06;;;;;;;32.45;19.20;;;;;;;;;;5010067;28;20041;-80
2022/07/01 00:52:32;;;;;;;28.38;17.75;;;;;;;;;;5010776;28;20179;-80
2022/07/01 00:55:02;;;;;;;31.60;18.58;;;;;;;;;;5012289;28;20668;-79
2022/07/01 00:57:31;;;;;;;28.33;18.63;;;;;;;;;;5042923;28;20022;-80
2022/07/01 00:59:56;;;;;;;29.50;18.73;;;;;;;;;;5027563;28;20026;-80
2022/07/01 01:02:22;;;;;;;30.80;19.23;;;;;;;;;;5012293;28;20230;-80
2022/07/01 01:04:47;;;;;;;35.25;20.33;;;;;;;;;;5025714;28;20022;-80
2022/07/01 01:07:13;;;;;;;31.98;18.35;;;;;;;;;;5010748;28;20025;-80
2022/07/01 01:09:39;;;;;;;35.03;19.25;;;;;;;;;;5009890;28;20029;-81
2022/07/01 01:12:05;;;;;;;30.65;20.13;;;;;;;;;;5010474;28;20477;-80
2022/07/01 01:14:46;;;;;;;34.92;18.55;;;;;;;;;;5008946;28;20030;-80
2022/07/01 01:17:12;;;;;;;35.05;19.23;;;;;;;;;;5010063;28;20042;-80
2022/07/01 01:19:38;;;;;;;38.95;20.00;;;;;;;;;;5025381;28;20564;-82
2022/07/01 01:22:04;;;;;;;40.20;19.73;;;;;;;;;;5008587;28;20046;-81
2022/07/01 01:24:29;;;;;;;31.02;18.42;;;;;;;;;;5010155;28;20026;-79
2022/07/01 01:26:55;;;;;;;32.88;19.90;;;;;;;;;;5009867;28;20080;-80
2022/07/01 01:29:20;;;;;;;34.30;19.85;;;;;;;;;;5010829;28;20053;-81
2022/07/01 01:31:46;;;;;;;34.78;19.23;;;;;;;;;;5025281;28;20650;-80
2022/07/01 01:34:12;;;;;;;38.00;19.98;;;;;;;;;;5025255;28;20061;-79
2022/07/01 01:36:38;;;;;;;31.17;19.00;;;;;;;;;;5008498;28;20058;-80
2022/07/01 01:39:07;;;;;;;35.67;19.33;;;;;;;;;;5024841;28;20496;-81
2022/07/01 01:41:33;;;;;;;34.78;20.35;;;;;;;;;;5012774;28;20055;-80
2022/07/01 01:43:58;;;;;;;33.95;19.63;;;;;;;;;;5037533;28;20026;-80
2022/07/01 01:46:24;;;;;;;32.03;19.77;;;;;;;;;;5029166;28;20058;-81
2022/07/01 01:48:49;;;;;;;54.45;27.80;;;;;;;;;;5026096;28;20026;-81
2022/07/01 01:51:15;;;;;;;38.45;21.48;;;;;;;;;;5009986;28;20065;-81
2022/07/01 01:53:41;;;;;;;31.35;19.83;;;;;;;;;;5010823;28;20042;-81
2022/07/01 01:56:08;;;;;;;32.90;19.90;;;;;;;;;;5011242;28;20033;-80
2022/07/01 01:58:34;;;;;;;34.10;19.77;;;;;;;;;;5012510;28;20058;-81
2022/07/01 02:00:59;;;;;;;30.60;20.27;;;;;;;;;;5028685;28;20087;-80
2022/07/01 02:03:25;;;;;;;32.10;20.13;;;;;;;;;;5029068;28;20516;-80
2022/07/01 02:05:50;;;;;;;37.65;20.25;;;;;;;;;;5013951;28;20042;-80
2022/07/01 02:08:16;;;;;;;38.70;19.90;;;;;;;;;;5012068;28;20113;-81
2022/07/01 02:10:41;;;;;;;36.38;20.50;;;;;;;;;;5028126;28;20037;-80
2022/07/01 02:13:06;;;;;;;31.00;18.83;;;;;;;;;;5028183;28;20390;-81
2022/07/01 02:15:32;;;;;;;36.28;20.63;;;;;;;;;;5028483;28;20044;-80
2022/07/01 02:17:57;;;;;;;38.80;20.20;;;;;;;;;;5013580;28;20412;-79
2022/07/01 02:20:23;;;;;;;34.33;20.17;;;;;;;;;;5018562;28;20044;-80
2022/07/01 02:22:49;;;;;;;37.17;21.45;;;;;;;;;;5030517;28;20073;-80
2022/07/01 02:25:14;;;;;;;33.67;20.35;;;;;;;;;;5032749;28;20034;-81
2022/07/01 02:27:40;;;;;;;32.88;20.45;;;;;;;;;;5034270;28;20014;-80
2022/07/01 02:30:06;;;;;;;41.83;19.42;;;;;;;;;;5021169;28;20037;-80
2022/07/01 02:32:33;;;;;;;39.13;20.98;;;;;;;;;;5031226;28;20033;-80
2022/07/01 02:34:59;;;;;;;33.38;20.17;;;;;;;;;;5013681;28;20498;-80
2022/07/01 02:37:25;;;;;;;31.80;20.23;;;;;;;;;;5013543;28;20411;-81
2022/07/01 02:39:50;;;;;;;29.92;20.05;;;;;;;;;;5013355;28;20040;-79
2022/07/01 02:42:31;;;;;;;34.17;19.30;;;;;;;;;;5011148;28;20071;-81
2022/07/01 02:44:57;;;;;;;34.35;22.02;;;;;;;;;;5027799;28;20026;-80
2022/07/01 02:47:22;;;;;;;36.50;20.40;;;;;;;;;;5012510;28;20025;-79
2022/07/01 02:49:48;;;;;;;47.22;20.35;;;;;;;;;;5028147;28;20543;-80
2022/07/01 02:52:15;;;;;;;34.83;20.40;;;;;;;;;;5027524;28;20022;-81
2022/07/01 02:54:41;;;;;;;36.20;21.58;;;;;;;;;;5028346;28;20080;-80
2022/07/01 02:57:07;;;;;;;37.30;21.63;;;;;;;;;;5027927;28;20025;-80
2022/07/01 02:59:33;;;;;;;38.70;21.50;;;;;;;;;;5029213;28;20105;-79
2022/07/01 03:01:58;;;;;;;36.45;22.33;;;;;;;;;;5018030;28;20394;-79
2022/07/01 03:04:24;;;;;;;40.03;21.20;;;;;;;;;;5012340;28;20281;-78
2022/07/01 03:06:49;;;;;;;39.70;21.15;;;;;;;;;;5011591;28;20030;-80
2022/07/01 03:09:15;;;;;;;40.65;21.08;;;;;;;;;;5012333;28;20105;-80
2022/07/01 03:11:40;;;;;;;43.47;22.17;;;;;;;;;;5010707;28;20079;-80
2022/07/01 03:14:06;;;;;;;38.95;21.88;;;;;;;;;;5027311;28;20034;-81
2022/07/01 03:16:31;;;;;;;36.47;20.48;;;;;;;;;;5012252;28;20030;-80
2022/07/01 03:18:57;;;;;;;35.25;21.80;;;;;;;;;;5011807;28;20030;-79
2022/07/01 03:21:23;;;;;;;40.63;21.20;;;;;;;;;;5012201;28;20087;-80
2022/07/01 03:23:50;;;;;;;40.88;22.85;;;;;;;;;;5008377;28;20117;-81
2022/07/01 03:26:15;;;;;;;40.20;20.90;;;;;;;;;;5007056;28;20116;-80
2022/07/01 03:28:42;;;;;;;49.35;21.90;;;;;;;;;;5007467;28;20053;-80
2022/07/01 03:31:08;;;;;;;41.13;23.75;;;;;;;;;;4992473;28;20030;-80
2022/07/01 03:33:33;;;;;;;40.08;22.20;;;;;;;;;;4992234;28;20045;-80
2022/07/01 03:35:59;;;;;;;40.00;22.55;;;;;;;;;;5006995;28;20065;-79
2022/07/01 03:38:24;;;;;;;37.08;22.20;;;;;;;;;;5006853;28;20022;-80
2022/07/01 03:40:50;;;;;;;34.67;21.05;;;;;;;;;;5007257;28;20074;-79
2022/07/01 03:43:15;;;;;;;41.90;24.10;;;;;;;;;;5007044;28;20052;-81
2022/07/01 03:45:41;;;;;;;46.25;23.25;;;;;;;;;;5007805;28;20424;-80
2022/07/01 03:48:06;;;;;;;44.72;22.92;;;;;;;;;;5006893;28;20026;-80
2022/07/01 03:50:32;;;;;;;41.30;22.48;;;;;;;;;;5001158;28;20022;-82
2022/07/01 03:55:44;;;;;;;51.78;23.15;;;;;;;;;;4994361;28;20065;-82
2022/07/01 03:58:09;;;;;;;50.67;25.45;;;;;;;;;;5009402;28;20041;-80
2022/07/01 04:00:36;;;;;;;46.28;25.88;;;;;;;;;;5009301;28;20034;-81
2022/07/01 04:03:03;;;;;;;47.22;25.00;;;;;;;;;;5007525;28;20645;-81
2022/07/01 04:05:28;;;;;;;45.45;24.85;;;;;;;;;;4992536;28;20108;-80
2022/07/01 04:07:54;;;;;;;49.20;25.13;;;;;;;;;;4991357;28;20446;-80
2022/07/01 04:10:20;;;;;;;53.40;26.30;;;;;;;;;;5006083;28;20034;-80
2022/07/01 04:12:45;;;;;;;55.15;27.15;;;;;;;;;;5006408;28;20077;-81
2022/07/01 04:15:11;;;;;;;47.47;24.83;;;;;;;;;;4991508;28;20109;-81
2022/07/01 04:17:36;;;;;;;46.17;27.20;;;;;;;;;;4991307;28;20033;-81
2022/07/01 04:20:03;;;;;;;49.67;25.88;;;;;;;;;;4991476;28;20034;-81
2022/07/01 04:22:38;;;;;;;49.53;25.27;;;;;;;;;;5012444;28;20042;-81
2022/07/01 04:25:04;;;;;;;44.60;23.95;;;;;;;;;;5026087;28;20072;-79
2022/07/01 04:27:33;;;;;;;58.83;25.38;;;;;;;;;;5009565;28;20022;-80
2022/07/01 04:30:02;;;;;;;51.28;25.30;;;;;;;;;;5011620;28;20408;-80
2022/07/01 04:32:27;;;;;;;48.42;26.50;;;;;;;;;;5026966;28;20400;-80
2022/07/01 04:34:53;;;;;;;46.03;24.80;;;;;;;;;;5025887;28;20022;-80
2022/07/01 04:37:19;;;;;;;48.15;24.50;;;;;;;;;;5013106;28;20153;-80
2022/07/01 04:39:45;;;;;;;50.38;24.77;;;;;;;;;;5010192;28;20092;-79
2022/07/01 04:42:10;;;;;;;48.42;25.00;;;;;;;;;;5010972;28;20029;-80
2022/07/01 04:44:37;;;;;;;53.17;26.13;;;;;;;;;;5011026;28;20436;-80
2022/07/01 04:47:04;;;;;;;59.78;31.27;;;;;;;;;;5004932;28;20034;-80
2022/07/01 04:49:30;;;;;;;43.60;24.65;;;;;;;;;;4993132;28;20018;-80
2022/07/01 04:51:57;;;;;;;55.92;29.65;;;;;;;;;;5006038;28;20031;-81
2022/07/01 04:54:23;;;;;;;46.90;24.48;;;;;;;;;;4990896;28;20069;-80
2022/07/01 04:56:50;;;;;;;50.17;24.02;;;;;;;;;;5006117;28;20061;-80
2022/07/01 04:59:16;;;;;;;39.20;23.33;;;;;;;;;;4990759;28;20026;-81
2022/07/01 05:01:43;;;;;;;45.08;23.90;;;;;;;;;;5006024;28;20049;-80
2022/07/01 05:04:10;;;;;;;41.53;22.77;;;;;;;;;;5006274;28;20034;-81
2022/07/01 05:06:36;;;;;;;43.55;24.58;;;;;;;;;;5007946;28;20125;-80
2022/07/01 05:09:02;;;;;;;41.47;23.10;;;;;;;;;;5002069;28;20026;-79
2022/07/01 05:11:28;;;;;;;49.40;24.38;;;;;;;;;;5009421;28;20026;-81
2022/07/01 05:13:53;;;;;;;42.25;23.50;;;;;;;;;;4990669;28;20031;-80
2022/07/01 05:16:20;;;;;;;46.67;23.13;;;;;;;;;;4991969;28;20053;-82
2022/07/01 05:24:14;;;;;;;41.00;21.75;;;;;;;;;;5009330;28;20085;-80
2022/07/01 05:26:40;;;;;;;45.17;23.15;;;;;;;;;;5009539;28;20026;-80
2022/07/01 05:29:06;;;;;;;38.25;23.02;;;;;;;;;;5009612;28;20032;-80
2022/07/01 05:31:31;;;;;;;47.85;22.48;;;;;;;;;;5012160;28;20026;-80
2022/07/01 05:34:00;;;;;;;51.10;23.90;;;;;;;;;;5013307;28;20041;-79
2022/07/01 05:36:26;;;;;;;46.47;24.17;;;;;;;;;;5029343;28;20034;-80
2022/07/01 05:38:52;;;;;;;40.58;22.92;;;;;;;;;;5011758;28;20183;-80
2022/07/01 05:41:18;;;;;;;44.05;22.80;;;;;;;;;;5027631;28;20053;-76
2022/07/01 05:43:44;;;;;;;43.60;24.00;;;;;;;;;;5011606;28;20033;-76
2022/07/01 05:46:09;;;;;;;41.90;22.67;;;;;;;;;;5027686;28;20104;-76
2022/07/01 05:48:35;;;;;;;39.42;22.38;;;;;;;;;;4993812;28;20387;-78
2022/07/01 05:51:00;;;;;;;34.72;21.40;;;;;;;;;;4993530;28;20029;-77
2022/07/01 05:53:26;;;;;;;39.15;21.25;;;;;;;;;;4992967;28;20092;-79
2022/07/01 05:55:51;;;;;;;42.83;20.05;;;;;;;;;;5011043;28;20442;-78
2022/07/01 05:58:20;;;;;;;35.03;19.23;;;;;;;;;;4995645;28;20041;-77
2022/07/01 06:00:45;;;;;;;36.78;21.38;;;;;;;;;;5008790;28;20072;-79
2022/07/01 06:03:14;;;;;;;38.33;19.75;;;;;;;;;;4993903;28;20442;-78
2022/07/01 06:05:41;;;;;;;40.30;20.17;;;;;;;;;;4992374;28;20022;-78
2022/07/01 06:08:07;;;;;;;40.10;20.83;;;;;;;;;;4991894;28;20018;-79
2022/07/01 06:10:33;;;;;;;33.25;20.13;;;;;;;;;;4998085;28;20156;-78
2022/07/01 06:12:59;;;;;;;35.97;20.17;;;;;;;;;;4998146;28;20022;-77
2022/07/01 06:15:25;;;;;;;39.58;19.90;;;;;;;;;;5018689;28;20037;-79
2022/07/01 06:17:53;;;;;;;42.83;20.23;;;;;;;;;;5013213;28;20036;-80
2022/07/01 06:20:19;;;;;;;35.22;20.52;;;;;;;;;;5011121;28;20486;-78
2022/07/01 06:22:45;;;;;;;42.70;20.50;;;;;;;;;;5020099;28;20545;-78
2022/07/01 06:25:14;;;;;;;38.30;21.08;;;;;;;;;;5026651;28;20128;-81
2022/07/01 06:27:44;;;;;;;34.35;19.75;;;;;;;;;;5006721;28;20114;-78
2022/07/01 06:30:10;;;;;;;38.65;20.65;;;;;;;;;;5004475;28;20549;-79
2022/07/01 06:32:36;;;;;;;36.25;20.60;;;;;;;;;;5006525;28;20080;-78
2022/07/01 06:35:02;;;;;;;44.58;22.20;;;;;;;;;;5006995;28;20026;-78
2022/07/01 06:37:30;;;;;;;39.30;20.98;;;;;;;;;;4992906;28;20029;-79
2022/07/01 06:39:56;;;;;;;40.22;20.45;;;;;;;;;;5011089;28;20029;-80
2022/07/01 06:42:23;;;;;;;35.25;21.10;;;;;;;;;;5026241;28;20038;-81
2022/07/01 06:44:49;;;;;;;36.58;20.98;;;;;;;;;;5011310;28;20080;-79
2022/07/01 06:47:14;;;;;;;37.05;22.00;;;;;;;;;;5003290;28;20041;-78
2022/07/01 06:49:40;;;;;;;32.45;20.85;;;;;;;;;;5002826;28;20025;-79
2022/07/01 06:52:06;;;;;;;37.38;20.33;;;;;;;;;;5002730;28;20501;-78
2022/07/01 06:54:32;;;;;;;33.05;18.83;;;;;;;;;;5024578;28;20041;-78
2022/07/01 06:56:58;;;;;;;31.80;19.77;;;;;;;;;;5008555;28;20042;-78
2022/07/01 06:59:23;;;;;;;30.52;19.20;;;;;;;;;;5006788;28;20116;-79
2022/07/01 07:01:50;;;;;;;34.40;19.92;;;;;;;;;;5025200;28;20029;-79
2022/07/01 07:04:16;;;;;;;34.67;19.65;;;;;;;;;;5008626;28;20026;-79
2022/07/01 07:06:42;;;;;;;30.85;19.00;;;;;;;;;;5011152;28;20437;-79
2022/07/01 07:09:08;;;;;;;36.20;20.52;;;;;;;;;;5011002;28;20441;-78
2022/07/01 07:11:33;;;;;;;37.15;20.35;;;;;;;;;;5023322;28;20041;-78
2022/07/01 07:13:59;;;;;;;35.60;21.85;;;;;;;;;;5032809;28;20125;-79
2022/07/01 07:16:26;;;;;;;34.70;20.10;;;;;;;;;;5011666;28;20037;-81
2022/07/01 07:18:52;;;;;;;33.22;19.90;;;;;;;;;;5021158;28;20045;-80
2022/07/01 07:21:17;;;;;;;35.95;20.42;;;;;;;;;;5016569;28;20030;-79
2022/07/01 07:23:43;;;;;;;30.15;19.25;;;;;;;;;;5012431;28;20061;-79
2022/07/01 07:26:09;;;;;;;43.90;21.65;;;;;;;;;;5021936;28;20101;-78
2022/07/01 07:28:34;;;;;;;32.45;18.67;;;;;;;;;;5045159;28;20053;-79
2022/07/01 07:31:00;;;;;;;33.30;20.48;;;;;;;;;;5025688;28;20025;-80
2022/07/01 07:33:25;;;;;;;31.65;20.05;;;;;;;;;;5017072;28;20036;-80
2022/07/01 07:35:52;;;;;;;30.95;19.55;;;;;;;;;;5016095;28;20044;-80
2022/07/01 07:38:17;;;;;;;33.17;18.85;;;;;;;;;;5028730;28;20082;-79
2022/07/01 07:40:43;;;;;;;39.83;22.75;;;;;;;;;;5021205;28;20026;-78
2022/07/01 07:43:09;;;;;;;43.72;25.63;;;;;;;;;;5026158;28;20026;-79
2022/07/01 07:45:35;;;;;;;32.47;19.90;;;;;;;;;;5023017;28;20109;-77
2022/07/01 07:48:02;;;;;;;33.72;19.85;;;;;;;;;;5014712;28;20065;-79
2022/07/01 07:50:28;;;;;;;36.20;20.25;;;;;;;;;;5013099;28;20367;-77
2022/07/01 07:52:55;;;;;;;32.10;19.75;;;;;;;;;;5002390;28;20659;-79
2022/07/01 07:55:21;;;;;;;35.65;20.38;;;;;;;;;;5000703;28;20044;-77
2022/07/01 07:57:47;;;;;;;35.33;20.55;;;;;;;;;;4998380;28;20038;-77
2022/07/01 08:00:14;;;;;;;32.60;20.10;;;;;;;;;;4997901;28;20563;-77
2022/07/01 08:02:41;;;;;;;36.00;22.27;;;;;;;;;;4987357;28;20779;-77
2022/07/01 08:05:09;;;;;;;32.67;20.27;;;;;;;;;;4997163;28;20039;-79
2022/07/01 08:07:39;;;;;;;36.00;18.80;;;;;;;;;;5013884;28;20030;-77
2022/07/01 08:10:10;;;;;;;36.03;20.33;;;;;;;;;;4996755;28;20149;-78
2022/07/01 08:12:37;;;;;;;43.97;20.52;;;;;;;;;;5014449;28;20486;-78
2022/07/01 08:15:03;;;;;;;33.20;19.40;;;;;;;;;;4996154;28;20037;-78
2022/07/01 08:17:31;;;;;;;40.50;20.77;;;;;;;;;;5007832;28;20045;-78
2022/07/01 08:19:56;;;;;;;37.38;19.80;;;;;;;;;;4996221;28;20041;-79
2022/07/01 08:22:22;;;;;;;36.97;17.85;;;;;;;;;;4994983;28;20514;-78
2022/07/01 08:24:48;;;;;;;24.42;16.58;;;;;;;;;;4995596;28;20026;-78
2022/07/01 08:27:14;;;;;;;32.70;17.92;;;;;;;;;;5012220;28;20402;-77
2022/07/01 08:29:40;;;;;;;27.77;17.45;;;;;;;;;;5009287;28;20092;-78
2022/07/01 08:32:06;;;;;;;28.55;17.02;;;;;;;;;;4994382;28;20089;-78
2022/07/01 08:34:32;;;;;;;28.05;16.25;;;;;;;;;;5009431;28;20030;-78
2022/07/01 08:36:58;;;;;;;31.05;16.92;;;;;;;;;;5010481;28;20332;-78
2022/07/01 08:39:23;;;;;;;24.25;15.77;;;;;;;;;;4995247;28;20056;-78
2022/07/01 08:41:49;;;;;;;30.58;16.05;;;;;;;;;;5011721;28;20034;-80
2022/07/01 08:44:15;;;;;;;26.08;16.42;;;;;;;;;;5009125;28;20652;-78
2022/07/01 08:46:41;;;;;;;28.80;16.33;;;;;;;;;;5013715;28;20029;-78
2022/07/01 08:49:07;;;;;;;27.17;16.20;;;;;;;;;;5009847;28;20187;-77
2022/07/01 08:51:32;;;;;;;24.25;15.23;;;;;;;;;;5013712;28;20498;-79
2022/07/01 08:53:58;;;;;;;33.78;17.15;;;;;;;;;;5008368;28;20394;-77
2022/07/01 08:59:10;;;;;;;25.40;15.13;;;;;;;;;;4998240;28;20041;-79
2022/07/01 09:01:37;;;;;;;27.33;15.60;;;;;;;;;;4993611;28;20030;-79
2022/07/01 09:04:20;;;;;;;22.75;15.13;;;;;;;;;;4996460;28;20061;-79
2022/07/01 09:06:47;;;;;;;20.83;13.60;;;;;;;;;;5003514;28;20021;-79
2022/07/01 09:09:20;;;;;;;21.95;14.88;;;;;;;;;;4997865;28;20029;-78
2022/07/01 09:11:53;;;;;;;26.95;14.60;;;;;;;;;;5014585;28;20038;-79
2022/07/01 09:14:22;;;;;;;23.10;15.43;;;;;;;;;;5008105;28;20038;-77
2022/07/01 09:16:50;;;;;;;22.88;14.40;;;;;;;;;;4997297;28;20546;-77
2022/07/01 09:19:17;;;;;;;22.35;14.23;;;;;;;;;;4999010;28;20042;-77
2022/07/01 09:21:48;;;;;;;31.38;14.85;;;;;;;;;;5010608;28;20080;-77
2022/07/01 09:24:26;;;;;;;;;;;;;;;;;;5019272;28;20578;-80
2022/07/01 09:26:54;;;;;;;52.47;15.65;;;;;;;;;;5017923;28;19913;-80
2022/07/01 09:29:20;;;;;;;22.20;14.98;;;;;;;;;;5004803;28;20026;-80
2022/07/01 09:31:49;;;;;;;25.55;15.52;;;;;;;;;;5007737;28;20048;-77
2022/07/01 09:34:16;;;;;;;21.40;13.75;;;;;;;;;;5008366;28;20033;-77
2022/07/01 09:36:52;;;;;;;22.25;13.68;;;;;;;;;;5009202;28;20052;-78
2022/07/01 09:39:18;;;;;;;24.75;15.38;;;;;;;;;;5007578;28;20032;-78
2022/07/01 09:41:43;;;;;;;17.52;13.48;;;;;;;;;;5030873;28;20049;-77
2022/07/01 09:44:09;;;;;;;23.63;15.35;;;;;;;;;;4993505;28;20813;-77
2022/07/01 09:46:35;;;;;;;24.98;13.90;;;;;;;;;;4994255;28;20141;-78
2022/07/01 09:49:01;;;;;;;17.95;14.32;;;;;;;;;;4996311;28;21192;-78
2022/07/01 09:51:28;;;;;;;28.67;13.90;;;;;;;;;;4992522;28;20125;-77
2022/07/01 09:53:55;;;;;;;22.92;13.65;;;;;;;;;;5008930;28;20029;-76
2022/07/01 09:56:21;;;;;;;29.90;17.48;;;;;;;;;;4990105;28;20052;-78
2022/07/01 09:58:48;;;;;;;20.23;12.18;;;;;;;;;;4992331;28;20364;-78
2022/07/01 10:01:14;;;;;;;15.18;12.85;;;;;;;;;;4991287;28;20785;-77
2022/07/01 10:03:44;;;;;;;20.58;11.98;;;;;;;;;;5006769;28;20037;-80
2022/07/01 10:06:30;;;;;;;17.40;11.50;;;;;;;;;;5009891;28;20123;-79
2022/07/01 10:09:06;;;;;;;20.77;12.75;;;;;;;;;;5010273;28;20029;-78
2022/07/01 10:12:09;;;;;;;17.67;12.50;;;;;;;;;;5008812;28;20041;-78
2022/07/01 10:14:39;;;;;;;19.55;13.32;;;;;;;;;;5006963;28;20057;-79
2022/07/01 10:17:09;;;;;;;16.25;12.10;;;;;;;;;;5007328;28;20061;-78
2022/07/01 10:19:35;;;;;;;13.63;10.73;;;;;;;;;;5014201;28;20037;-78
2022/07/01 10:22:24;;;;;;;18.45;10.43;;;;;;;;;;4998821;28;20057;-81
2022/07/01 10:24:49;;;;;;;15.68;9.57;;;;;;;;;;4999056;28;20021;-77
2022/07/01 10:27:24;;;;;;;16.70;8.98;;;;;;;;;;5004405;28;20500;-79
2022/07/01 10:30:12;;;;;;;17.70;8.57;;;;;;;;;;5015916;28;20026;-77
2022/07/01 10:32:49;;;;;;;18.35;9.63;;;;;;;;;;5004759;28;20034;-77
2022/07/01 10:35:16;;;;;;;15.38;8.18;;;;;;;;;;5009557;28;20038;-75
2022/07/01 10:38:01;;;;;;;17.33;8.30;;;;;;;;;;5012276;28;20092;-80
2022/07/01 10:40:53;;;;;;;24.05;8.10;;;;;;;;;;5001848;28;20454;-78
2022/07/01 10:43:48;;;;;;;8.25;6.55;;;;;;;;;;4997094;28;20069;-78
2022/07/01 10:46:40;;;;;;;16.17;7.30;;;;;;;;;;4995388;28;20049;-76
2022/07/01 10:49:41;;;;;;;10.02;6.38;;;;;;;;;;5014958;28;20030;-81
2022/07/01 10:52:11;;;;;;;15.38;6.80;;;;;;;;;;4998577;28;20042;-77
2022/07/01 10:54:40;;;;;;;9.88;6.60;;;;;;;;;;4991665;28;20037;-78
2022/07/01 10:57:28;;;;;;;13.10;6.70;;;;;;;;;;5000707;28;20041;-77
2022/07/01 11:00:01;;;;;;;20.15;7.05;;;;;;;;;;5008861;28;20125;-78
2022/07/01 11:02:31;;;;;;;11.50;6.78;;;;;;;;;;5010279;28;20939;-79
2022/07/01 11:05:16;;;;;;;25.92;8.10;;;;;;;;;;5008086;28;20034;-77
2022/07/01 11:07:47;;;;;;;9.52;6.63;;;;;;;;;;5000655;28;20042;-77
2022/07/01 11:10:18;;;;;;;8.43;6.22;;;;;;;;;;5018390;28;20402;-76
2022/07/01 11:12:46;;;;;;;15.90;6.85;;;;;;;;;;5000683;28;20030;-78
2022/07/01 11:15:13;;;;;;;8.60;5.32;;;;;;;;;;4989937;28;20045;-78
2022/07/01 11:17:47;;;;;;;9.55;6.65;;;;;;;;;;5012482;28;20492;-77
2022/07/01 11:20:14;;;;;;;13.85;6.38;;;;;;;;;;4991005;28;20073;-76
2022/07/01 11:22:43;;;;;;;16.75;7.65;;;;;;;;;;4996015;28;20054;-77
2022/07/01 11:25:10;;;;;;;10.27;7.43;;;;;;;;;;5008856;28;20112;-78
2022/07/01 11:27:38;;;;;;;14.75;8.20;;;;;;;;;;5016650;28;20057;-78
2022/07/01 11:30:12;;;;;;;18.80;10.25;;;;;;;;;;5021184;28;20033;-80
2022/07/01 11:32:43;;;;;;;16.20;10.75;;;;;;;;;;5000036;28;20042;-78
2022/07/01 11:41:22;;;;;;;18.35;9.93;;;;;;;;;;4997311;28;20135;-80
2022/07/01 11:43:48;;;;;;;13.60;8.43;;;;;;;;;;4996073;28;20089;-77
2022/07/01 11:46:14;;;;;;;16.00;10.00;;;;;;;;;;5005636;28;20026;-76
2022/07/01 11:48:49;;;;;;;20.40;10.85;;;;;;;;;;5008104;28;20033;-79
2022/07/01 11:51:18;;;;;;;18.40;11.10;;;;;;;;;;4994529;28;20045;-77
2022/07/01 11:53:48;;;;;;;24.48;12.30;;;;;;;;;;4998977;28;20075;-79
2022/07/01 11:56:15;;;;;;;24.90;14.70;;;;;;;;;;4989426;28;20053;-82
2022/07/01 11:58:47;;;;;;;19.83;12.75;;;;;;;;;;5001728;28;20294;-77
2022/07/01 12:01:33;;;;;;;16.35;12.95;;;;;;;;;;5006120;28;20123;-80
2022/07/01 12:04:02;;;;;;;21.92;12.30;;;;;;;;;;5024611;28;20037;-82
2022/07/01 12:06:28;;;;;;;13.50;11.32;;;;;;;;;;5004640;28;20022;-80
2022/07/01 12:08:56;;;;;;;16.42;11.13;;;;;;;;;;5017132;28;20025;-80
2022/07/01 12:11:23;;;;;;;15.05;10.38;;;;;;;;;;5021407;28;20029;-81
2022/07/01 12:13:51;;;;;;;17.00;11.50;;;;;;;;;;5006864;28;20112;-81
2022/07/01 12:16:18;;;;;;;22.48;11.93;;;;;;;;;;5016879;28;20033;-79
2022/07/01 12:19:00;;;;;;;24.88;12.07;;;;;;;;;;5008107;28;20208;-79
2022/07/01 12:21:27;;;;;;;18.00;11.10;;;;;;;;;;5021237;28;20036;-82
2022/07/01 12:24:07;;;;;;;16.58;9.63;;;;;;;;;;5005278;28;20126;-81
2022/07/01 12:26:33;;;;;;;11.93;9.30;;;;;;;;;;5032865;28;20087;-80
2022/07/01 12:29:00;;;;;;;13.45;9.13;;;;;;;;;;5037923;28;20030;-79
2022/07/01 12:31:26;;;;;;;13.57;9.30;;;;;;;;;;5033794;28;20022;-80
2022/07/01 12:33:54;;;;;;;14.98;9.27;;;;;;;;;;5011369;28;20085;-79
2022/07/01 12:36:20;;;;;;;13.43;9.98;;;;;;;;;;5007942;28;20561;-80
2022/07/01 12:38:45;;;;;;;14.32;8.65;;;;;;;;;;5005453;28;20100;-79
2022/07/01 12:41:33;;;;;;;27.10;10.98;;;;;;;;;;5019487;28;20486;-79
2022/07/01 12:44:05;;;;;;;21.75;11.65;;;;;;;;;;4996145;28;20504;-80
2022/07/01 12:46:33;;;;;;;25.35;10.52;;;;;;;;;;5021451;28;20026;-81
2022/07/01 12:48:59;;;;;;;22.13;9.07;;;;;;;;;;5022575;28;20037;-80
2022/07/01 12:51:32;;;;;;;16.52;9.07;;;;;;;;;;5005854;28;20038;-79
2022/07/01 12:53:58;;;;;;;17.48;10.60;;;;;;;;;;5000812;28;20449;-81
2022/07/01 12:56:26;;;;;;;13.50;8.90;;;;;;;;;;5013648;28;20513;-80
2022/07/01 12:58:52;;;;;;;14.00;8.90;;;;;;;;;;5012277;28;20489;-81
2022/07/01 13:01:19;;;;;;;14.75;9.05;;;;;;;;;;5003526;28;20030;-78
2022/07/01 13:03:48;;;;;;;21.02;10.57;;;;;;;;;;5020087;28;20180;-78
2022/07/01 13:06:14;;;;;;;14.85;10.63;;;;;;;;;;5013259;28;20062;-79
2022/07/01 13:08:39;;;;;;;12.40;9.02;;;;;;;;;;4999632;28;20475;-81
2022/07/01 13:11:08;;;;;;;15.63;8.15;;;;;;;;;;5007545;28;20439;-81
2022/07/01 13:13:33;;;;;;;12.18;6.95;;;;;;;;;;5000977;28;20042;-79
2022/07/01 13:15:59;;;;;;;8.50;6.53;;;;;;;;;;5009763;28;20022;-79
2022/07/01 13:18:25;;;;;;;7.95;6.60;;;;;;;;;;5001760;28;20034;-79
2022/07/01 13:20:51;;;;;;;15.43;6.85;;;;;;;;;;4993635;28;20427;-76
2022/07/01 13:23:16;;;;;;;8.25;6.15;;;;;;;;;;5014902;28;20073;-78
2022/07/01 13:25:42;;;;;;;10.88;6.03;;;;;;;;;;5021349;28;20101;-79
2022/07/01 13:28:08;;;;;;;10.70;6.63;;;;;;;;;;5021013;28;20057;-79
2022/07/01 13:30:36;;;;;;;9.77;6.30;;;;;;;;;;5008532;28;20175;-81
2022/07/01 13:33:01;;;;;;;13.50;9.27;;;;;;;;;;5003511;28;20053;-80
2022/07/01 13:35:27;;;;;;;13.80;9.18;;;;;;;;;;5028050;28;20041;-80
2022/07/01 13:37:54;;;;;;;11.07;7.93;;;;;;;;;;5014506;28;20489;-80
2022/07/01 13:40:21;;;;;;;11.07;7.13;;;;;;;;;;5004611;28;20066;-79
2022/07/01 13:42:47;;;;;;;10.15;7.70;;;;;;;;;;5018057;28;20040;-77
2022/07/01 13:45:13;;;;;;;11.93;7.95;;;;;;;;;;4982932;28;20398;-79
2022/07/01 13:47:39;;;;;;;10.70;7.22;;;;;;;;;;5017705;28;20038;-80
2022/07/01 13:50:05;;;;;;;11.40;8.20;;;;;;;;;;4994277;28;20046;-78
2022/07/01 13:52:31;;;;;;;10.98;7.20;;;;;;;;;;5003310;28;20457;-80
2022/07/01 13:54:57;;;;;;;11.75;8.13;;;;;;;;;;5021402;28;20022;-82
2022/07/01 13:57:24;;;;;;;9.57;8.60;;;;;;;;;;5022467;28;21309;-81
2022/07/01 13:59:49;;;;;;;11.80;7.80;;;;;;;;;;5011741;28;20442;-78
2022/07/01 14:02:17;;;;;;;14.52;8.38;;;;;;;;;;5001139;28;20086;-82
2022/07/01 14:04:43;;;;;;;12.63;7.50;;;;;;;;;;5014160;28;20033;-81
2022/07/01 14:07:10;;;;;;;10.52;7.60;;;;;;;;;;5025718;28;20033;-81
2022/07/01 14:09:38;;;;;;;15.00;8.70;;;;;;;;;;5025398;28;20022;-80
2022/07/01 14:12:04;;;;;;;12.07;7.57;;;;;;;;;;5009407;28;20030;-81
2022/07/01 14:14:29;;;;;;;10.65;7.65;;;;;;;;;;5002308;28;20022;-80
2022/07/01 14:16:55;;;;;;;15.55;7.22;;;;;;;;;;4994739;28;20038;-79
2022/07/01 14:19:20;;;;;;;11.80;7.63;;;;;;;;;;5014809;28;20026;-82
2022/07/01 14:21:46;;;;;;;12.48;7.00;;;;;;;;;;5001864;28;20608;-78
2022/07/01 14:24:12;;;;;;;7.63;6.18;;;;;;;;;;4993781;28;20420;-82
2022/07/01 14:26:38;;;;;;;9.18;7.80;;;;;;;;;;5024345;28;20029;-80
2022/07/01 14:29:03;;;;;;;8.45;6.45;;;;;;;;;;5007351;28;20453;-80
2022/07/01 14:31:29;;;;;;;8.07;5.38;;;;;;;;;;5011952;28;20116;-81
2022/07/01 14:33:54;;;;;;;8.82;5.80;;;;;;;;;;5011353;28;20109;-81
2022/07/01 14:36:20;;;;;;;9.70;5.70;;;;;;;;;;5010149;28;20068;-80
2022/07/01 14:38:45;;;;;;;8.88;5.60;;;;;;;;;;5019302;28;20464;-80
2022/07/01 14:41:11;;;;;;;9.38;5.25;;;;;;;;;;5024511;28;20365;-81